Terminal Aerodrome Forecast
Issued by NWS Shreveport, LA

Current Version | Previous Version | Text Only | Print | Product List | Glossary On
Versions: 1 2 3 4 5 6 7 8 9 10 11 12 13 14 15 16 17
706
FTUS44 KSHV 261423 AAA
TAFLFK
TAF AMD
KLFK 261423Z 2614/2712 01005KT P6SM BKN005
      TEMPO 2615/2616 SCT007 BKN012
     FM261600 02007KT P6SM BKN015
     FM261800 02007KT P6SM BKN020
     FM262000 02007KT P6SM VCTS BKN030CB
     FM270100 01004KT P6SM SCT035 BKN100 OVC250=

USA.gov is the U.S. government's official web portal to all federal, state and local government web resources and services.